sensor_id;sensor_type;location;lat;lon;timestamp;P1;durP1;ratioP1;P2;durP2;ratioP2
15194;SDS011;7698;42.478;23.756;2023-06-19T00:02:24;6.10;;;5.60;;
15194;SDS011;7698;42.478;23.756;2023-06-19T00:04:51;6.40;;;5.90;;
15194;SDS011;7698;42.478;23.756;2023-06-19T00:07:19;5.95;;;5.53;;
15194;SDS011;7698;42.478;23.756;2023-06-19T00:09:47;6.18;;;5.68;;
15194;SDS011;7698;42.478;23.756;2023-06-19T00:12:14;6.13;;;5.57;;
15194;SDS011;7698;42.478;23.756;2023-06-19T00:14:40;5.70;;;5.30;;
15194;SDS011;7698;42.478;23.756;2023-06-19T00:17:07;5.38;;;4.97;;
15194;SDS011;7698;42.478;23.756;2023-06-19T00:19:34;5.95;;;5.55;;
15194;SDS011;7698;42.478;23.756;2023-06-19T00:22:02;5.38;;;4.93;;
15194;SDS011;7698;42.478;23.756;2023-06-19T00:24:30;5.65;;;5.25;;
15194;SDS011;7698;42.478;23.756;2023-06-19T00:26:57;4.88;;;4.47;;
15194;SDS011;7698;42.478;23.756;2023-06-19T00:29:27;4.93;;;4.53;;
15194;SDS011;7698;42.478;23.756;2023-06-19T00:31:54;5.25;;;4.88;;
15194;SDS011;7698;42.478;23.756;2023-06-19T00:34:21;6.30;;;5.80;;
15194;SDS011;7698;42.478;23.756;2023-06-19T00:36:49;4.78;;;4.47;;
15194;SDS011;7698;42.478;23.756;2023-06-19T00:39:16;6.05;;;5.63;;
15194;SDS011;7698;42.478;23.756;2023-06-19T00:41:44;5.18;;;4.85;;
15194;SDS011;7698;42.478;23.756;2023-06-19T00:44:13;4.90;;;4.53;;
15194;SDS011;7698;42.478;23.756;2023-06-19T00:46:41;6.00;;;5.43;;
15194;SDS011;7698;42.478;23.756;2023-06-19T00:49:08;5.15;;;4.75;;
15194;SDS011;7698;42.478;23.756;2023-06-19T00:51:35;6.15;;;5.65;;
15194;SDS011;7698;42.478;23.756;2023-06-19T00:54:02;6.80;;;6.20;;
15194;SDS011;7698;42.478;23.756;2023-06-19T00:56:29;6.28;;;5.78;;
15194;SDS011;7698;42.478;23.756;2023-06-19T00:58:57;6.35;;;5.85;;
15194;SDS011;7698;42.478;23.756;2023-06-19T01:01:24;6.55;;;6.05;;
15194;SDS011;7698;42.478;23.756;2023-06-19T01:03:52;5.05;;;4.75;;
15194;SDS011;7698;42.478;23.756;2023-06-19T01:06:20;5.90;;;5.50;;
15194;SDS011;7698;42.478;23.756;2023-06-19T01:08:53;5.38;;;4.97;;
15194;SDS011;7698;42.478;23.756;2023-06-19T01:11:27;5.18;;;4.78;;
15194;SDS011;7698;42.478;23.756;2023-06-19T01:13:59;4.80;;;4.40;;
15194;SDS011;7698;42.478;23.756;2023-06-19T01:16:29;6.13;;;5.55;;
15194;SDS011;7698;42.478;23.756;2023-06-19T01:18:57;4.57;;;4.28;;
15194;SDS011;7698;42.478;23.756;2023-06-19T01:21:24;5.10;;;4.70;;
15194;SDS011;7698;42.478;23.756;2023-06-19T01:23:52;6.00;;;5.53;;
15194;SDS011;7698;42.478;23.756;2023-06-19T01:26:21;4.85;;;4.45;;
15194;SDS011;7698;42.478;23.756;2023-06-19T01:28:51;6.20;;;5.65;;
15194;SDS011;7698;42.478;23.756;2023-06-19T01:31:20;5.93;;;5.35;;
15194;SDS011;7698;42.478;23.756;2023-06-19T01:33:51;5.45;;;4.95;;
15194;SDS011;7698;42.478;23.756;2023-06-19T01:36:20;5.18;;;4.78;;
15194;SDS011;7698;42.478;23.756;2023-06-19T01:38:47;6.07;;;5.63;;
15194;SDS011;7698;42.478;23.756;2023-06-19T01:41:17;6.10;;;5.65;;
15194;SDS011;7698;42.478;23.756;2023-06-19T01:43:46;4.78;;;4.47;;
15194;SDS011;7698;42.478;23.756;2023-06-19T01:46:13;6.50;;;5.97;;
15194;SDS011;7698;42.478;23.756;2023-06-19T01:48:40;5.38;;;4.97;;
15194;SDS011;7698;42.478;23.756;2023-06-19T01:51:07;6.20;;;5.00;;
15194;SDS011;7698;42.478;23.756;2023-06-19T01:53:34;5.20;;;4.80;;
15194;SDS011;7698;42.478;23.756;2023-06-19T01:56:00;5.28;;;4.78;;
15194;SDS011;7698;42.478;23.756;2023-06-19T01:58:29;4.47;;;4.07;;
15194;SDS011;7698;42.478;23.756;2023-06-19T02:00:55;4.85;;;4.45;;
15194;SDS011;7698;42.478;23.756;2023-06-19T02:03:22;4.45;;;4.15;;
15194;SDS011;7698;42.478;23.756;2023-06-19T02:05:50;5.07;;;4.68;;
15194;SDS011;7698;42.478;23.756;2023-06-19T02:08:17;4.78;;;4.40;;
15194;SDS011;7698;42.478;23.756;2023-06-19T02:10:44;4.95;;;4.45;;
15194;SDS011;7698;42.478;23.756;2023-06-19T02:13:10;4.28;;;3.97;;
15194;SDS011;7698;42.478;23.756;2023-06-19T02:15:39;4.68;;;4.28;;
15194;SDS011;7698;42.478;23.756;2023-06-19T02:18:06;4.68;;;4.38;;
15194;SDS011;7698;42.478;23.756;2023-06-19T02:20:33;5.43;;;5.03;;
15194;SDS011;7698;42.478;23.756;2023-06-19T02:23:00;5.15;;;4.75;;
15194;SDS011;7698;42.478;23.756;2023-06-19T02:25:27;5.00;;;4.60;;
15194;SDS011;7698;42.478;23.756;2023-06-19T02:27:53;4.22;;;3.92;;
15194;SDS011;7698;42.478;23.756;2023-06-19T02:30:20;4.57;;;4.28;;
15194;SDS011;7698;42.478;23.756;2023-06-19T02:32:48;5.30;;;4.82;;
15194;SDS011;7698;42.478;23.756;2023-06-19T02:35:15;6.20;;;4.82;;
15194;SDS011;7698;42.478;23.756;2023-06-19T02:37:42;4.60;;;4.20;;
15194;SDS011;7698;42.478;23.756;2023-06-19T02:40:11;5.07;;;4.75;;
15194;SDS011;7698;42.478;23.756;2023-06-19T02:42:39;4.85;;;4.45;;
15194;SDS011;7698;42.478;23.756;2023-06-19T02:45:06;4.53;;;4.22;;
15194;SDS011;7698;42.478;23.756;2023-06-19T02:47:33;4.10;;;3.80;;
15194;SDS011;7698;42.478;23.756;2023-06-19T02:50:02;4.13;;;3.83;;
15194;SDS011;7698;42.478;23.756;2023-06-19T02:52:30;4.07;;;3.75;;
15194;SDS011;7698;42.478;23.756;2023-06-19T02:54:57;4.53;;;4.13;;
15194;SDS011;7698;42.478;23.756;2023-06-19T02:57:24;4.22;;;3.92;;
15194;SDS011;7698;42.478;23.756;2023-06-19T02:59:50;4.18;;;3.88;;
15194;SDS011;7698;42.478;23.756;2023-06-19T03:02:17;4.22;;;3.92;;
15194;SDS011;7698;42.478;23.756;2023-06-19T03:04:44;4.22;;;3.92;;
15194;SDS011;7698;42.478;23.756;2023-06-19T03:07:12;4.90;;;4.40;;
15194;SDS011;7698;42.478;23.756;2023-06-19T03:09:41;4.47;;;4.13;;
15194;SDS011;7698;42.478;23.756;2023-06-19T03:12:09;4.78;;;4.40;;
15194;SDS011;7698;42.478;23.756;2023-06-19T03:14:36;5.10;;;4.70;;
15194;SDS011;7698;42.478;23.756;2023-06-19T03:17:03;4.30;;;4.00;;
15194;SDS011;7698;42.478;23.756;2023-06-19T03:19:30;5.53;;;4.13;;
15194;SDS011;7698;42.478;23.756;2023-06-19T03:21:56;5.22;;;4.75;;
15194;SDS011;7698;42.478;23.756;2023-06-19T03:24:25;4.10;;;3.80;;
15194;SDS011;7698;42.478;23.756;2023-06-19T03:26:52;4.75;;;4.35;;
15194;SDS011;7698;42.478;23.756;2023-06-19T03:29:19;5.28;;;4.78;;
15194;SDS011;7698;42.478;23.756;2023-06-19T03:31:45;5.55;;;5.05;;
15194;SDS011;7698;42.478;23.756;2023-06-19T03:34:12;4.40;;;4.00;;
15194;SDS011;7698;42.478;23.756;2023-06-19T03:36:39;4.20;;;3.90;;
15194;SDS011;7698;42.478;23.756;2023-06-19T03:39:06;4.63;;;4.22;;
15194;SDS011;7698;42.478;23.756;2023-06-19T03:41:35;3.50;;;3.28;;
15194;SDS011;7698;42.478;23.756;2023-06-19T03:44:01;4.50;;;4.20;;
15194;SDS011;7698;42.478;23.756;2023-06-19T03:46:29;4.43;;;4.13;;
15194;SDS011;7698;42.478;23.756;2023-06-19T03:48:55;4.35;;;4.05;;
15194;SDS011;7698;42.478;23.756;2023-06-19T03:51:22;3.78;;;3.53;;
15194;SDS011;7698;42.478;23.756;2023-06-19T03:53:49;4.40;;;4.03;;
15194;SDS011;7698;42.478;23.756;2023-06-19T03:56:16;4.10;;;3.80;;
15194;SDS011;7698;42.478;23.756;2023-06-19T03:58:44;4.18;;;3.88;;
15194;SDS011;7698;42.478;23.756;2023-06-19T04:01:11;4.95;;;4.25;;
15194;SDS011;7698;42.478;23.756;2023-06-19T04:03:38;4.93;;;4.53;;
15194;SDS011;7698;42.478;23.756;2023-06-19T04:06:04;6.53;;;5.63;;
15194;SDS011;7698;42.478;23.756;2023-06-19T04:08:32;5.72;;;5.32;;
15194;SDS011;7698;42.478;23.756;2023-06-19T04:10:59;5.38;;;4.97;;
15194;SDS011;7698;42.478;23.756;2023-06-19T04:13:26;5.78;;;4.97;;
15194;SDS011;7698;42.478;23.756;2023-06-19T04:15:54;5.18;;;4.78;;
15194;SDS011;7698;42.478;23.756;2023-06-19T04:18:21;5.93;;;5.32;;
15194;SDS011;7698;42.478;23.756;2023-06-19T04:20:48;4.82;;;4.43;;
15194;SDS011;7698;42.478;23.756;2023-06-19T04:23:15;4.97;;;4.47;;
15194;SDS011;7698;42.478;23.756;2023-06-19T04:25:42;5.57;;;4.72;;
15194;SDS011;7698;42.478;23.756;2023-06-19T04:28:09;4.90;;;4.50;;
15194;SDS011;7698;42.478;23.756;2023-06-19T04:30:36;4.30;;;3.90;;
15194;SDS011;7698;42.478;23.756;2023-06-19T04:33:05;4.15;;;3.75;;
15194;SDS011;7698;42.478;23.756;2023-06-19T04:35:33;3.70;;;3.50;;
15194;SDS011;7698;42.478;23.756;2023-06-19T04:38:04;3.45;;;3.10;;
15194;SDS011;7698;42.478;23.756;2023-06-19T04:40:31;3.95;;;3.55;;
15194;SDS011;7698;42.478;23.756;2023-06-19T04:42:58;3.83;;;3.53;;
15194;SDS011;7698;42.478;23.756;2023-06-19T04:45:25;3.95;;;3.58;;
15194;SDS011;7698;42.478;23.756;2023-06-19T04:47:52;3.80;;;3.50;;
15194;SDS011;7698;42.478;23.756;2023-06-19T04:50:21;3.58;;;3.35;;
15194;SDS011;7698;42.478;23.756;2023-06-19T04:52:48;3.70;;;3.40;;
15194;SDS011;7698;42.478;23.756;2023-06-19T04:55:15;3.38;;;3.17;;
15194;SDS011;7698;42.478;23.756;2023-06-19T04:57:42;4.50;;;4.10;;
15194;SDS011;7698;42.478;23.756;2023-06-19T05:00:09;5.30;;;3.40;;
15194;SDS011;7698;42.478;23.756;2023-06-19T05:02:37;3.72;;;3.53;;
15194;SDS011;7698;42.478;23.756;2023-06-19T05:05:08;3.40;;;3.10;;
15194;SDS011;7698;42.478;23.756;2023-06-19T05:07:37;4.10;;;3.80;;
15194;SDS011;7698;42.478;23.756;2023-06-19T05:10:04;4.25;;;3.05;;
15194;SDS011;7698;42.478;23.756;2023-06-19T05:12:33;6.60;;;2.92;;
15194;SDS011;7698;42.478;23.756;2023-06-19T05:15:01;3.90;;;3.60;;
15194;SDS011;7698;42.478;23.756;2023-06-19T05:17:28;3.85;;;3.45;;
15194;SDS011;7698;42.478;23.756;2023-06-19T05:19:54;3.78;;;3.47;;
15194;SDS011;7698;42.478;23.756;2023-06-19T05:22:21;3.70;;;3.30;;
15194;SDS011;7698;42.478;23.756;2023-06-19T05:24:50;3.70;;;3.38;;
15194;SDS011;7698;42.478;23.756;2023-06-19T05:27:17;5.65;;;3.00;;
15194;SDS011;7698;42.478;23.756;2023-06-19T05:29:44;4.30;;;2.95;;
15194;SDS011;7698;42.478;23.756;2023-06-19T05:32:11;3.13;;;2.90;;
15194;SDS011;7698;42.478;23.756;2023-06-19T05:34:38;3.20;;;3.00;;
15194;SDS011;7698;42.478;23.756;2023-06-19T05:37:05;3.95;;;3.70;;
15194;SDS011;7698;42.478;23.756;2023-06-19T05:39:32;3.50;;;3.28;;
15194;SDS011;7698;42.478;23.756;2023-06-19T05:42:00;3.10;;;2.90;;
15194;SDS011;7698;42.478;23.756;2023-06-19T05:44:27;4.40;;;3.50;;
15194;SDS011;7698;42.478;23.756;2023-06-19T05:46:54;3.83;;;3.22;;
15194;SDS011;7698;42.478;23.756;2023-06-19T05:49:20;3.38;;;3.17;;
15194;SDS011;7698;42.478;23.756;2023-06-19T05:51:47;3.97;;;3.30;;
15194;SDS011;7698;42.478;23.756;2023-06-19T05:54:14;3.30;;;3.10;;
15194;SDS011;7698;42.478;23.756;2023-06-19T05:56:42;3.85;;;3.03;;
15194;SDS011;7698;42.478;23.756;2023-06-19T05:59:11;3.03;;;2.83;;
15194;SDS011;7698;42.478;23.756;2023-06-19T06:01:39;3.42;;;3.13;;
15194;SDS011;7698;42.478;23.756;2023-06-19T06:04:06;2.78;;;2.58;;
15194;SDS011;7698;42.478;23.756;2023-06-19T06:06:33;7.85;;;3.03;;
15194;SDS011;7698;42.478;23.756;2023-06-19T06:09:00;3.35;;;2.97;;
15194;SDS011;7698;42.478;23.756;2023-06-19T06:11:27;3.58;;;3.35;;
15194;SDS011;7698;42.478;23.756;2023-06-19T06:13:53;3.05;;;2.83;;
15194;SDS011;7698;42.478;23.756;2023-06-19T06:16:22;3.33;;;3.13;;
15194;SDS011;7698;42.478;23.756;2023-06-19T06:18:49;3.15;;;2.95;;
15194;SDS011;7698;42.478;23.756;2023-06-19T06:21:15;3.40;;;3.10;;
15194;SDS011;7698;42.478;23.756;2023-06-19T06:23:42;3.53;;;3.20;;
15194;SDS011;7698;42.478;23.756;2023-06-19T06:26:10;3.00;;;2.80;;
15194;SDS011;7698;42.478;23.756;2023-06-19T06:28:37;3.20;;;2.90;;
15194;SDS011;7698;42.478;23.756;2023-06-19T06:31:04;2.75;;;2.55;;
15194;SDS011;7698;42.478;23.756;2023-06-19T06:33:33;3.97;;;3.67;;
15194;SDS011;7698;42.478;23.756;2023-06-19T06:36:00;2.90;;;2.67;;
15194;SDS011;7698;42.478;23.756;2023-06-19T06:38:27;2.65;;;2.55;;
15194;SDS011;7698;42.478;23.756;2023-06-19T06:40:54;3.63;;;3.17;;
15194;SDS011;7698;42.478;23.756;2023-06-19T06:43:21;3.67;;;3.03;;
15194;SDS011;7698;42.478;23.756;2023-06-19T06:45:48;4.40;;;4.00;;
15194;SDS011;7698;42.478;23.756;2023-06-19T06:48:15;4.15;;;3.85;;
15194;SDS011;7698;42.478;23.756;2023-06-19T06:50:43;3.95;;;3.08;;
15194;SDS011;7698;42.478;23.756;2023-06-19T06:53:10;3.10;;;2.90;;
15194;SDS011;7698;42.478;23.756;2023-06-19T06:55:37;3.40;;;3.20;;
15194;SDS011;7698;42.478;23.756;2023-06-19T06:58:04;3.38;;;3.15;;
15194;SDS011;7698;42.478;23.756;2023-06-19T07:00:31;2.90;;;2.60;;
15194;SDS011;7698;42.478;23.756;2023-06-19T07:02:58;2.88;;;2.67;;
15194;SDS011;7698;42.478;23.756;2023-06-19T07:05:25;3.10;;;2.90;;
15194;SDS011;7698;42.478;23.756;2023-06-19T07:07:55;3.47;;;3.17;;
15194;SDS011;7698;42.478;23.756;2023-06-19T07:10:22;3.10;;;2.80;;
15194;SDS011;7698;42.478;23.756;2023-06-19T07:12:49;3.80;;;3.40;;
15194;SDS011;7698;42.478;23.756;2023-06-19T07:15:16;3.40;;;3.20;;
15194;SDS011;7698;42.478;23.756;2023-06-19T07:17:44;2.97;;;2.78;;
15194;SDS011;7698;42.478;23.756;2023-06-19T07:20:11;3.60;;;3.15;;
15194;SDS011;7698;42.478;23.756;2023-06-19T07:22:38;2.78;;;2.55;;
15194;SDS011;7698;42.478;23.756;2023-06-19T07:25:07;4.75;;;2.80;;
15194;SDS011;7698;42.478;23.756;2023-06-19T07:27:36;2.47;;;2.28;;
15194;SDS011;7698;42.478;23.756;2023-06-19T07:30:03;2.63;;;2.42;;
15194;SDS011;7698;42.478;23.756;2023-06-19T07:32:31;2.60;;;2.30;;
15194;SDS011;7698;42.478;23.756;2023-06-19T07:34:58;3.28;;;2.97;;
15194;SDS011;7698;42.478;23.756;2023-06-19T07:37:25;2.67;;;2.47;;
15194;SDS011;7698;42.478;23.756;2023-06-19T07:39:52;2.83;;;2.63;;
15194;SDS011;7698;42.478;23.756;2023-06-19T07:42:20;4.88;;;2.70;;
15194;SDS011;7698;42.478;23.756;2023-06-19T07:44:47;2.95;;;2.75;;
15194;SDS011;7698;42.478;23.756;2023-06-19T07:47:15;2.92;;;2.72;;
15194;SDS011;7698;42.478;23.756;2023-06-19T07:49:43;2.88;;;2.67;;
15194;SDS011;7698;42.478;23.756;2023-06-19T07:52:10;2.70;;;2.50;;
15194;SDS011;7698;42.478;23.756;2023-06-19T07:54:47;2.83;;;2.63;;
15194;SDS011;7698;42.478;23.756;2023-06-19T07:57:15;3.85;;;3.60;;
15194;SDS011;7698;42.478;23.756;2023-06-19T07:59:43;3.58;;;3.08;;
15194;SDS011;7698;42.478;23.756;2023-06-19T08:02:10;2.70;;;2.50;;
15194;SDS011;7698;42.478;23.756;2023-06-19T08:04:37;3.08;;;2.80;;
15194;SDS011;7698;42.478;23.756;2023-06-19T08:07:04;3.13;;;2.92;;
15194;SDS011;7698;42.478;23.756;2023-06-19T08:09:31;2.67;;;2.55;;
15194;SDS011;7698;42.478;23.756;2023-06-19T08:11:58;3.22;;;3.03;;
15194;SDS011;7698;42.478;23.756;2023-06-19T08:14:26;3.13;;;2.85;;
15194;SDS011;7698;42.478;23.756;2023-06-19T08:16:54;2.80;;;2.60;;
15194;SDS011;7698;42.478;23.756;2023-06-19T08:19:21;3.00;;;2.80;;
15194;SDS011;7698;42.478;23.756;2023-06-19T08:21:48;3.45;;;2.75;;
15194;SDS011;7698;42.478;23.756;2023-06-19T08:24:15;2.70;;;2.50;;
15194;SDS011;7698;42.478;23.756;2023-06-19T08:26:42;3.33;;;3.08;;
15194;SDS011;7698;42.478;23.756;2023-06-19T08:29:09;3.35;;;3.05;;
15194;SDS011;7698;42.478;23.756;2023-06-19T08:31:36;2.50;;;2.40;;
15194;SDS011;7698;42.478;23.756;2023-06-19T08:34:04;3.55;;;2.60;;
15194;SDS011;7698;42.478;23.756;2023-06-19T08:36:34;2.40;;;2.30;;
15194;SDS011;7698;42.478;23.756;2023-06-19T08:39:01;2.83;;;2.63;;
15194;SDS011;7698;42.478;23.756;2023-06-19T08:41:29;3.95;;;2.80;;
15194;SDS011;7698;42.478;23.756;2023-06-19T08:43:56;2.40;;;2.20;;
15194;SDS011;7698;42.478;23.756;2023-06-19T08:46:23;2.85;;;2.65;;
15194;SDS011;7698;42.478;23.756;2023-06-19T08:48:50;2.45;;;2.35;;
15194;SDS011;7698;42.478;23.756;2023-06-19T08:51:18;3.58;;;3.00;;
15194;SDS011;7698;42.478;23.756;2023-06-19T08:53:45;3.10;;;2.90;;
15194;SDS011;7698;42.478;23.756;2023-06-19T08:56:15;2.90;;;2.70;;
15194;SDS011;7698;42.478;23.756;2023-06-19T08:58:42;3.30;;;3.10;;
15194;SDS011;7698;42.478;23.756;2023-06-19T09:01:10;3.15;;;2.90;;
15194;SDS011;7698;42.478;23.756;2023-06-19T09:03:38;2.90;;;2.70;;
15194;SDS011;7698;42.478;23.756;2023-06-19T09:06:06;4.13;;;3.55;;
15194;SDS011;7698;42.478;23.756;2023-06-19T09:08:35;3.30;;;2.83;;
15194;SDS011;7698;42.478;23.756;2023-06-19T09:11:02;3.60;;;3.40;;
15194;SDS011;7698;42.478;23.756;2023-06-19T09:13:31;3.13;;;2.92;;
15194;SDS011;7698;42.478;23.756;2023-06-19T09:15:59;3.58;;;3.30;;
15194;SDS011;7698;42.478;23.756;2023-06-19T09:18:28;3.55;;;3.28;;
15194;SDS011;7698;42.478;23.756;2023-06-19T09:20:56;3.40;;;3.10;;
15194;SDS011;7698;42.478;23.756;2023-06-19T09:23:23;3.20;;;3.00;;
15194;SDS011;7698;42.478;23.756;2023-06-19T09:25:52;3.63;;;3.00;;
15194;SDS011;7698;42.478;23.756;2023-06-19T09:28:20;3.70;;;3.42;;
15194;SDS011;7698;42.478;23.756;2023-06-19T09:30:52;3.60;;;3.30;;
15194;SDS011;7698;42.478;23.756;2023-06-19T09:33:22;3.80;;;3.25;;
15194;SDS011;7698;42.478;23.756;2023-06-19T09:35:51;3.30;;;3.10;;
15194;SDS011;7698;42.478;23.756;2023-06-19T09:38:21;2.97;;;2.78;;
15194;SDS011;7698;42.478;23.756;2023-06-19T09:40:52;3.10;;;2.90;;
15194;SDS011;7698;42.478;23.756;2023-06-19T09:43:23;3.28;;;2.97;;
15194;SDS011;7698;42.478;23.756;2023-06-19T09:45:53;2.95;;;2.75;;
15194;SDS011;7698;42.478;23.756;2023-06-19T09:48:24;4.55;;;3.85;;
15194;SDS011;7698;42.478;23.756;2023-06-19T09:50:59;3.90;;;3.60;;
15194;SDS011;7698;42.478;23.756;2023-06-19T09:53:28;3.25;;;3.05;;
15194;SDS011;7698;42.478;23.756;2023-06-19T09:55:58;3.53;;;3.22;;
15194;SDS011;7698;42.478;23.756;2023-06-19T09:58:26;3.80;;;3.50;;
15194;SDS011;7698;42.478;23.756;2023-06-19T10:00:54;3.65;;;3.35;;
15194;SDS011;7698;42.478;23.756;2023-06-19T10:03:29;2.78;;;2.58;;
15194;SDS011;7698;42.478;23.756;2023-06-19T10:05:57;3.28;;;2.95;;
15194;SDS011;7698;42.478;23.756;2023-06-19T10:08:27;2.70;;;2.50;;
15194;SDS011;7698;42.478;23.756;2023-06-19T10:10:55;2.97;;;2.75;;
15194;SDS011;7698;42.478;23.756;2023-06-19T10:13:30;3.70;;;3.40;;
15194;SDS011;7698;42.478;23.756;2023-06-19T10:15:58;2.97;;;2.78;;
15194;SDS011;7698;42.478;23.756;2023-06-19T10:18:26;2.88;;;2.60;;
15194;SDS011;7698;42.478;23.756;2023-06-19T10:20:53;2.70;;;2.50;;
15194;SDS011;7698;42.478;23.756;2023-06-19T10:23:22;2.88;;;2.67;;
15194;SDS011;7698;42.478;23.756;2023-06-19T10:25:55;2.78;;;2.40;;
15194;SDS011;7698;42.478;23.756;2023-06-19T10:28:23;2.80;;;2.60;;
15194;SDS011;7698;42.478;23.756;2023-06-19T10:30:54;2.60;;;2.40;;
15194;SDS011;7698;42.478;23.756;2023-06-19T10:33:23;2.55;;;2.35;;
15194;SDS011;7698;42.478;23.756;2023-06-19T10:35:52;2.58;;;2.38;;
15194;SDS011;7698;42.478;23.756;2023-06-19T10:38:20;2.28;;;2.08;;
15194;SDS011;7698;42.478;23.756;2023-06-19T10:40:47;1.83;;;1.73;;
15194;SDS011;7698;42.478;23.756;2023-06-19T10:43:19;1.90;;;1.80;;
15194;SDS011;7698;42.478;23.756;2023-06-19T10:45:49;2.40;;;2.15;;
15194;SDS011;7698;42.478;23.756;2023-06-19T10:48:18;2.20;;;2.10;;
15194;SDS011;7698;42.478;23.756;2023-06-19T10:50:46;2.53;;;2.10;;
15194;SDS011;7698;42.478;23.756;2023-06-19T10:53:22;3.50;;;2.53;;
15194;SDS011;7698;42.478;23.756;2023-06-19T10:55:54;2.40;;;2.20;;
15194;SDS011;7698;42.478;23.756;2023-06-19T10:58:22;2.05;;;1.95;;
15194;SDS011;7698;42.478;23.756;2023-06-19T11:00:51;2.45;;;2.10;;
15194;SDS011;7698;42.478;23.756;2023-06-19T11:03:18;2.30;;;2.10;;
15194;SDS011;7698;42.478;23.756;2023-06-19T11:05:45;3.00;;;2.28;;
15194;SDS011;7698;42.478;23.756;2023-06-19T11:08:16;2.40;;;2.20;;
15194;SDS011;7698;42.478;23.756;2023-06-19T11:10:45;2.63;;;1.92;;
15194;SDS011;7698;42.478;23.756;2023-06-19T11:13:13;2.10;;;1.90;;
15194;SDS011;7698;42.478;23.756;2023-06-19T11:15:42;1.70;;;1.60;;
15194;SDS011;7698;42.478;23.756;2023-06-19T11:18:10;2.10;;;1.90;;
15194;SDS011;7698;42.478;23.756;2023-06-19T11:20:44;1.92;;;1.83;;
15194;SDS011;7698;42.478;23.756;2023-06-19T11:23:12;1.92;;;1.80;;
15194;SDS011;7698;42.478;23.756;2023-06-19T11:25:40;2.10;;;1.83;;
15194;SDS011;7698;42.478;23.756;2023-06-19T11:28:11;1.75;;;1.65;;
15194;SDS011;7698;42.478;23.756;2023-06-19T11:30:39;2.50;;;2.30;;
15194;SDS011;7698;42.478;23.756;2023-06-19T11:33:19;2.17;;;1.70;;
15194;SDS011;7698;42.478;23.756;2023-06-19T11:35:50;2.05;;;1.92;;
15194;SDS011;7698;42.478;23.756;2023-06-19T11:38:18;2.40;;;2.20;;
15194;SDS011;7698;42.478;23.756;2023-06-19T11:40:46;1.63;;;1.52;;
15194;SDS011;7698;42.478;23.756;2023-06-19T11:43:23;2.03;;;1.83;;
15194;SDS011;7698;42.478;23.756;2023-06-19T11:45:51;1.95;;;1.85;;
15194;SDS011;7698;42.478;23.756;2023-06-19T11:48:24;2.03;;;1.80;;
15194;SDS011;7698;42.478;23.756;2023-06-19T11:50:51;2.42;;;2.00;;
15194;SDS011;7698;42.478;23.756;2023-06-19T11:53:19;1.80;;;1.70;;
15194;SDS011;7698;42.478;23.756;2023-06-19T11:55:47;2.13;;;1.92;;
15194;SDS011;7698;42.478;23.756;2023-06-19T11:58:16;2.70;;;2.50;;
15194;SDS011;7698;42.478;23.756;2023-06-19T12:00:45;1.85;;;1.75;;
15194;SDS011;7698;42.478;23.756;2023-06-19T12:03:12;2.40;;;2.20;;
15194;SDS011;7698;42.478;23.756;2023-06-19T12:05:40;2.40;;;2.25;;
15194;SDS011;7698;42.478;23.756;2023-06-19T12:08:07;2.03;;;1.92;;
15194;SDS011;7698;42.478;23.756;2023-06-19T12:10:34;2.20;;;2.00;;
15194;SDS011;7698;42.478;23.756;2023-06-19T12:13:01;2.67;;;2.47;;
15194;SDS011;7698;42.478;23.756;2023-06-19T12:15:28;3.05;;;2.35;;
15194;SDS011;7698;42.478;23.756;2023-06-19T12:17:55;2.45;;;2.20;;
15194;SDS011;7698;42.478;23.756;2023-06-19T12:20:23;3.35;;;2.78;;
15194;SDS011;7698;42.478;23.756;2023-06-19T12:22:52;2.55;;;2.45;;
15194;SDS011;7698;42.478;23.756;2023-06-19T12:25:19;4.53;;;2.47;;
15194;SDS011;7698;42.478;23.756;2023-06-19T12:27:46;2.75;;;2.55;;
15194;SDS011;7698;42.478;23.756;2023-06-19T12:30:15;3.22;;;2.90;;
15194;SDS011;7698;42.478;23.756;2023-06-19T12:32:42;2.65;;;2.35;;
15194;SDS011;7698;42.478;23.756;2023-06-19T12:35:09;2.47;;;2.22;;
15194;SDS011;7698;42.478;23.756;2023-06-19T12:37:35;2.88;;;2.67;;
15194;SDS011;7698;42.478;23.756;2023-06-19T12:40:04;2.50;;;2.30;;
15194;SDS011;7698;42.478;23.756;2023-06-19T12:42:36;2.65;;;2.45;;
15194;SDS011;7698;42.478;23.756;2023-06-19T12:45:03;3.15;;;2.85;;
15194;SDS011;7698;42.478;23.756;2023-06-19T12:47:34;2.97;;;2.53;;
15194;SDS011;7698;42.478;23.756;2023-06-19T12:50:01;2.63;;;2.42;;
15194;SDS011;7698;42.478;23.756;2023-06-19T12:52:28;2.63;;;2.42;;
15194;SDS011;7698;42.478;23.756;2023-06-19T12:54:56;2.38;;;2.20;;
15194;SDS011;7698;42.478;23.756;2023-06-19T12:57:27;2.75;;;2.50;;
15194;SDS011;7698;42.478;23.756;2023-06-19T12:59:53;2.65;;;2.47;;
15194;SDS011;7698;42.478;23.756;2023-06-19T13:02:20;2.55;;;2.45;;
15194;SDS011;7698;42.478;23.756;2023-06-19T13:04:47;3.60;;;2.60;;
15194;SDS011;7698;42.478;23.756;2023-06-19T13:07:14;2.40;;;2.30;;
15194;SDS011;7698;42.478;23.756;2023-06-19T13:09:41;3.10;;;2.80;;
15194;SDS011;7698;42.478;23.756;2023-06-19T13:12:08;3.40;;;2.85;;
15194;SDS011;7698;42.478;23.756;2023-06-19T13:14:37;2.78;;;2.65;;
15194;SDS011;7698;42.478;23.756;2023-06-19T13:17:04;2.83;;;2.30;;
15194;SDS011;7698;42.478;23.756;2023-06-19T13:19:31;2.80;;;2.60;;
15194;SDS011;7698;42.478;23.756;2023-06-19T13:21:58;2.40;;;2.20;;
15194;SDS011;7698;42.478;23.756;2023-06-19T13:24:25;2.75;;;2.55;;
15194;SDS011;7698;42.478;23.756;2023-06-19T13:26:52;3.35;;;3.05;;
15194;SDS011;7698;42.478;23.756;2023-06-19T13:29:19;2.88;;;2.67;;
15194;SDS011;7698;42.478;23.756;2023-06-19T13:31:48;3.10;;;2.80;;
15194;SDS011;7698;42.478;23.756;2023-06-19T13:34:15;2.70;;;2.50;;
15194;SDS011;7698;42.478;23.756;2023-06-19T13:36:43;2.00;;;1.90;;
15194;SDS011;7698;42.478;23.756;2023-06-19T13:39:12;3.03;;;2.72;;
15194;SDS011;7698;42.478;23.756;2023-06-19T13:41:39;2.85;;;2.65;;
15194;SDS011;7698;42.478;23.756;2023-06-19T13:44:06;3.03;;;2.40;;
15194;SDS011;7698;42.478;23.756;2023-06-19T13:46:34;2.95;;;2.75;;
15194;SDS011;7698;42.478;23.756;2023-06-19T13:49:02;3.08;;;2.83;;
15194;SDS011;7698;42.478;23.756;2023-06-19T13:51:29;2.95;;;2.65;;
15194;SDS011;7698;42.478;23.756;2023-06-19T13:53:56;3.28;;;2.75;;
15194;SDS011;7698;42.478;23.756;2023-06-19T13:56:23;2.88;;;2.67;;
15194;SDS011;7698;42.478;23.756;2023-06-19T13:58:50;2.85;;;2.65;;
15194;SDS011;7698;42.478;23.756;2023-06-19T14:01:17;4.30;;;2.90;;
15194;SDS011;7698;42.478;23.756;2023-06-19T14:03:45;3.50;;;2.80;;
15194;SDS011;7698;42.478;23.756;2023-06-19T14:06:13;2.40;;;2.30;;
15194;SDS011;7698;42.478;23.756;2023-06-19T14:08:40;2.78;;;2.58;;
15194;SDS011;7698;42.478;23.756;2023-06-19T14:11:08;2.85;;;2.47;;
15194;SDS011;7698;42.478;23.756;2023-06-19T14:13:36;2.80;;;2.60;;
15194;SDS011;7698;42.478;23.756;2023-06-19T14:16:04;3.10;;;2.90;;
15194;SDS011;7698;42.478;23.756;2023-06-19T14:18:31;3.75;;;3.13;;
15194;SDS011;7698;42.478;23.756;2023-06-19T14:20:58;2.85;;;2.65;;
15194;SDS011;7698;42.478;23.756;2023-06-19T14:23:27;3.22;;;3.00;;
15194;SDS011;7698;42.478;23.756;2023-06-19T14:25:54;3.17;;;2.97;;
15194;SDS011;7698;42.478;23.756;2023-06-19T14:28:22;2.80;;;2.60;;
15194;SDS011;7698;42.478;23.756;2023-06-19T14:30:48;3.22;;;2.63;;
15194;SDS011;7698;42.478;23.756;2023-06-19T14:33:15;3.33;;;3.13;;
15194;SDS011;7698;42.478;23.756;2023-06-19T14:35:42;2.85;;;2.60;;
15194;SDS011;7698;42.478;23.756;2023-06-19T14:38:11;2.97;;;2.78;;
15194;SDS011;7698;42.478;23.756;2023-06-19T14:40:40;2.97;;;2.78;;
15194;SDS011;7698;42.478;23.756;2023-06-19T14:43:07;2.67;;;2.47;;
15194;SDS011;7698;42.478;23.756;2023-06-19T14:45:35;3.22;;;2.92;;
15194;SDS011;7698;42.478;23.756;2023-06-19T14:48:04;3.25;;;3.03;;
15194;SDS011;7698;42.478;23.756;2023-06-19T14:50:32;2.78;;;2.58;;
15194;SDS011;7698;42.478;23.756;2023-06-19T14:53:00;3.00;;;2.80;;